sensor_id;sensor_type;location;lat;lon;timestamp;pressure;altitude;pressure_sealevel;temperature;humidity
23016;BME280;11674;52.428;13.584;2023-04-06T00:01:31;101880.13;;;6.36;62.26
23016;BME280;11674;52.428;13.584;2023-04-06T00:06:38;101874.25;;;6.32;62.32
23016;BME280;11674;52.428;13.584;2023-04-06T00:11:45;101869.19;;;6.29;62.23
23016;BME280;11674;52.428;13.584;2023-04-06T00:16:52;101876.22;;;6.25;62.29
23016;BME280;11674;52.428;13.584;2023-04-06T00:21:59;101869.28;;;6.23;62.30
23016;BME280;11674;52.428;13.584;2023-04-06T00:27:06;101870.22;;;6.17;62.50
23016;BME280;11674;52.428;13.584;2023-04-06T00:32:13;101870.69;;;6.14;62.54
23016;BME280;11674;52.428;13.584;2023-04-06T00:37:27;101871.16;;;6.11;62.50
23016;BME280;11674;52.428;13.584;2023-04-06T00:42:34;101863.38;;;6.08;62.58
23016;BME280;11674;52.428;13.584;2023-04-06T00:47:42;101861.69;;;6.07;62.78
23016;BME280;11674;52.428;13.584;2023-04-06T00:52:49;101857.25;;;6.06;62.69
23016;BME280;11674;52.428;13.584;2023-04-06T00:58:00;101861.09;;;6.05;62.95
23016;BME280;11674;52.428;13.584;2023-04-06T01:03:15;101856.66;;;6.04;62.78
23016;BME280;11674;52.428;13.584;2023-04-06T01:08:21;101852.59;;;6.06;62.84
23016;BME280;11674;52.428;13.584;2023-04-06T01:13:41;101847.09;;;6.06;62.94
23016;BME280;11674;52.428;13.584;2023-04-06T01:18:59;101847.09;;;6.06;62.97
23016;BME280;11674;52.428;13.584;2023-04-06T01:24:07;101850.91;;;6.05;63.10
23016;BME280;11674;52.428;13.584;2023-04-06T01:29:46;101849.47;;;6.03;63.21
23016;BME280;11674;52.428;13.584;2023-04-06T01:35:26;101849.47;;;6.03;63.17
23016;BME280;11674;52.428;13.584;2023-04-06T01:41:03;101849.78;;;5.95;63.10
23016;BME280;11674;52.428;13.584;2023-04-06T01:46:21;101850.88;;;5.94;63.22
23016;BME280;11674;52.428;13.584;2023-04-06T01:51:28;101851.09;;;5.92;63.22
23016;BME280;11674;52.428;13.584;2023-04-06T01:56:38;101847.50;;;5.92;63.28
23016;BME280;11674;52.428;13.584;2023-04-06T02:01:56;101854.31;;;5.89;63.38
23016;BME280;11674;52.428;13.584;2023-04-06T02:07:05;101849.72;;;5.83;63.30
23016;BME280;11674;52.428;13.584;2023-04-06T02:12:11;101849.03;;;5.70;63.48
23016;BME280;11674;52.428;13.584;2023-04-06T02:17:18;101853.19;;;5.61;63.48
23016;BME280;11674;52.428;13.584;2023-04-06T02:22:25;101853.66;;;5.58;63.65
23016;BME280;11674;52.428;13.584;2023-04-06T02:27:33;101853.03;;;5.56;63.47
23016;BME280;11674;52.428;13.584;2023-04-06T02:32:40;101850.81;;;5.46;63.70
23016;BME280;11674;52.428;13.584;2023-04-06T02:37:47;101854.25;;;5.42;63.60
23016;BME280;11674;52.428;13.584;2023-04-06T02:42:54;101853.03;;;5.38;63.69
23016;BME280;11674;52.428;13.584;2023-04-06T02:48:05;101850.13;;;5.33;63.69
23016;BME280;11674;52.428;13.584;2023-04-06T02:53:12;101861.00;;;5.28;63.81
23016;BME280;11674;52.428;13.584;2023-04-06T02:58:19;101853.19;;;5.25;63.89
23016;BME280;11674;52.428;13.584;2023-04-06T03:03:29;101862.16;;;5.20;63.99
23016;BME280;11674;52.428;13.584;2023-04-06T03:08:38;101856.34;;;5.10;63.87
23016;BME280;11674;52.428;13.584;2023-04-06T03:13:45;101854.72;;;5.03;64.05
23016;BME280;11674;52.428;13.584;2023-04-06T03:18:52;101860.50;;;4.95;63.75
23016;BME280;11674;52.428;13.584;2023-04-06T03:23:59;101861.25;;;4.84;63.89
23016;BME280;11674;52.428;13.584;2023-04-06T03:29:06;101857.13;;;4.75;63.96
23016;BME280;11674;52.428;13.584;2023-04-06T03:34:13;101863.97;;;4.66;63.90
23016;BME280;11674;52.428;13.584;2023-04-06T03:39:20;101866.16;;;4.57;64.13
23016;BME280;11674;52.428;13.584;2023-04-06T03:44:28;101876.78;;;4.47;63.97
23016;BME280;11674;52.428;13.584;2023-04-06T03:49:34;101877.28;;;4.38;64.03
23016;BME280;11674;52.428;13.584;2023-04-06T03:54:44;101886.84;;;4.29;64.03
23016;BME280;11674;52.428;13.584;2023-04-06T04:00:07;101894.34;;;4.15;64.00
23016;BME280;11674;52.428;13.584;2023-04-06T04:05:14;101892.09;;;4.06;64.05
23016;BME280;11674;52.428;13.584;2023-04-06T04:10:21;101899.50;;;3.99;64.12
23016;BME280;11674;52.428;13.584;2023-04-06T04:15:28;101903.78;;;3.88;64.14
23016;BME280;11674;52.428;13.584;2023-04-06T04:20:35;101908.22;;;3.83;64.24
23016;BME280;11674;52.428;13.584;2023-04-06T04:25:44;101916.09;;;3.73;64.11
23016;BME280;11674;52.428;13.584;2023-04-06T04:30:50;101915.28;;;3.66;64.19
23016;BME280;11674;52.428;13.584;2023-04-06T04:35:58;101908.97;;;3.59;64.39
23016;BME280;11674;52.428;13.584;2023-04-06T04:41:11;101914.69;;;3.51;64.47
23016;BME280;11674;52.428;13.584;2023-04-06T04:46:20;101906.69;;;3.49;64.48
23016;BME280;11674;52.428;13.584;2023-04-06T04:51:28;101907.97;;;3.47;64.52
23016;BME280;11674;52.428;13.584;2023-04-06T04:56:45;101910.94;;;3.45;64.33
23016;BME280;11674;52.428;13.584;2023-04-06T05:01:58;101921.25;;;3.43;64.52
23016;BME280;11674;52.428;13.584;2023-04-06T05:07:15;101913.25;;;3.42;64.50
23016;BME280;11674;52.428;13.584;2023-04-06T05:12:24;101916.63;;;3.44;64.50
23016;BME280;11674;52.428;13.584;2023-04-06T05:17:41;101917.88;;;3.48;64.73
23016;BME280;11674;52.428;13.584;2023-04-06T05:22:52;101923.97;;;3.50;64.56
23016;BME280;11674;52.428;13.584;2023-04-06T05:27:59;101919.53;;;3.55;64.83
23016;BME280;11674;52.428;13.584;2023-04-06T05:33:10;101929.84;;;3.60;64.71
23016;BME280;11674;52.428;13.584;2023-04-06T05:38:40;101922.44;;;3.67;64.88
23016;BME280;11674;52.428;13.584;2023-04-06T05:44:02;101932.94;;;3.83;64.84
23016;BME280;11674;52.428;13.584;2023-04-06T05:49:09;101925.25;;;3.98;65.01
23016;BME280;11674;52.428;13.584;2023-04-06T05:54:15;101931.53;;;4.11;65.09
23016;BME280;11674;52.428;13.584;2023-04-06T05:59:24;101928.25;;;4.27;64.94
23016;BME280;11674;52.428;13.584;2023-04-06T06:04:31;101929.66;;;4.43;65.10
23016;BME280;11674;52.428;13.584;2023-04-06T06:09:38;101927.59;;;4.63;65.20
23016;BME280;11674;52.428;13.584;2023-04-06T06:14:59;101931.03;;;4.83;65.26
23016;BME280;11674;52.428;13.584;2023-04-06T06:20:11;101929.56;;;5.05;65.22
23016;BME280;11674;52.428;13.584;2023-04-06T06:25:18;101932.75;;;5.26;65.35
23016;BME280;11674;52.428;13.584;2023-04-06T06:30:25;101933.59;;;5.45;65.28
23016;BME280;11674;52.428;13.584;2023-04-06T06:35:34;101932.31;;;5.65;65.29
23016;BME280;11674;52.428;13.584;2023-04-06T06:40:41;101926.81;;;5.83;65.42
23016;BME280;11674;52.428;13.584;2023-04-06T06:45:50;101931.00;;;6.04;65.45
23016;BME280;11674;52.428;13.584;2023-04-06T06:50:57;101936.00;;;6.25;65.39
23016;BME280;11674;52.428;13.584;2023-04-06T06:56:04;101938.00;;;6.47;65.33
23016;BME280;11674;52.428;13.584;2023-04-06T07:01:11;101942.75;;;6.70;65.37
23016;BME280;11674;52.428;13.584;2023-04-06T07:06:19;101934.91;;;6.96;65.26
23016;BME280;11674;52.428;13.584;2023-04-06T07:11:25;101930.69;;;7.17;65.08
23016;BME280;11674;52.428;13.584;2023-04-06T07:16:32;101930.69;;;7.40;65.02
23016;BME280;11674;52.428;13.584;2023-04-06T07:21:39;101929.72;;;7.57;64.92
23016;BME280;11674;52.428;13.584;2023-04-06T07:26:46;101928.00;;;7.79;64.89
23016;BME280;11674;52.428;13.584;2023-04-06T07:31:54;101928.44;;;7.99;64.85
23016;BME280;11674;52.428;13.584;2023-04-06T07:37:01;101918.41;;;8.10;64.22
23016;BME280;11674;52.428;13.584;2023-04-06T07:42:08;101927.56;;;8.22;64.21
23016;BME280;11674;52.428;13.584;2023-04-06T07:47:17;101911.84;;;8.39;64.19
23016;BME280;11674;52.428;13.584;2023-04-06T07:52:23;101922.50;;;8.47;63.45
23016;BME280;11674;52.428;13.584;2023-04-06T07:57:31;101915.34;;;8.62;63.01
23016;BME280;11674;52.428;13.584;2023-04-06T08:02:37;101918.44;;;8.82;62.83
23016;BME280;11674;52.428;13.584;2023-04-06T08:07:44;101921.78;;;9.01;62.92
23016;BME280;11674;52.428;13.584;2023-04-06T08:12:52;101920.38;;;9.15;62.69
23016;BME280;11674;52.428;13.584;2023-04-06T08:17:58;101915.97;;;9.35;62.57
23016;BME280;11674;52.428;13.584;2023-04-06T08:23:05;101915.19;;;9.56;62.47
23016;BME280;11674;52.428;13.584;2023-04-06T08:28:12;101916.88;;;9.79;62.23
23016;BME280;11674;52.428;13.584;2023-04-06T08:33:19;101914.88;;;9.96;62.13
23016;BME280;11674;52.428;13.584;2023-04-06T08:38:26;101897.22;;;10.02;61.90
23016;BME280;11674;52.428;13.584;2023-04-06T08:43:37;101910.50;;;10.00;61.40
23016;BME280;11674;52.428;13.584;2023-04-06T08:48:46;101911.84;;;10.14;61.33
23016;BME280;11674;52.428;13.584;2023-04-06T08:53:55;101906.25;;;10.35;61.21
23016;BME280;11674;52.428;13.584;2023-04-06T08:59:02;101912.09;;;10.39;60.80
23016;BME280;11674;52.428;13.584;2023-04-06T09:04:11;101913.25;;;10.43;60.68
23016;BME280;11674;52.428;13.584;2023-04-06T09:09:17;101912.38;;;10.64;60.47
23016;BME280;11674;52.428;13.584;2023-04-06T09:14:37;101900.25;;;10.75;60.11
23016;BME280;11674;52.428;13.584;2023-04-06T09:19:45;101906.66;;;10.75;60.45
23016;BME280;11674;52.428;13.584;2023-04-06T09:24:53;101886.47;;;10.85;60.20
23016;BME280;11674;52.428;13.584;2023-04-06T09:30:08;101898.81;;;10.99;59.80
23016;BME280;11674;52.428;13.584;2023-04-06T09:35:16;101892.81;;;11.12;60.17
23016;BME280;11674;52.428;13.584;2023-04-06T09:40:23;101887.91;;;11.29;59.99
23016;BME280;11674;52.428;13.584;2023-04-06T09:45:30;101890.31;;;11.52;59.82
23016;BME280;11674;52.428;13.584;2023-04-06T09:50:38;101883.22;;;11.76;59.55
23016;BME280;11674;52.428;13.584;2023-04-06T09:55:46;101880.97;;;11.63;59.14
23016;BME280;11674;52.428;13.584;2023-04-06T10:01:17;101880.56;;;11.49;59.08
23016;BME280;11674;52.428;13.584;2023-04-06T10:06:28;101871.31;;;11.85;58.69
23016;BME280;11674;52.428;13.584;2023-04-06T10:11:38;101868.91;;;12.14;58.80
23016;BME280;11674;52.428;13.584;2023-04-06T10:16:48;101870.34;;;12.26;58.35
23016;BME280;11674;52.428;13.584;2023-04-06T10:21:57;101867.88;;;12.40;57.54
23016;BME280;11674;52.428;13.584;2023-04-06T10:27:06;101861.75;;;12.33;57.32
23016;BME280;11674;52.428;13.584;2023-04-06T10:32:13;101849.25;;;12.65;57.37
23016;BME280;11674;52.428;13.584;2023-04-06T10:37:20;101860.97;;;12.97;57.20
23016;BME280;11674;52.428;13.584;2023-04-06T10:42:37;101857.88;;;13.34;56.12
23016;BME280;11674;52.428;13.584;2023-04-06T10:47:44;101854.47;;;13.52;55.84
23016;BME280;11674;52.428;13.584;2023-04-06T10:53:03;101859.19;;;13.56;55.42
23016;BME280;11674;52.428;13.584;2023-04-06T10:58:10;101844.44;;;13.61;55.79
23016;BME280;11674;52.428;13.584;2023-04-06T11:03:18;101842.16;;;13.68;55.40
23016;BME280;11674;52.428;13.584;2023-04-06T11:08:26;101835.50;;;13.59;55.08
23016;BME280;11674;52.428;13.584;2023-04-06T11:13:49;101821.66;;;13.29;54.88
23016;BME280;11674;52.428;13.584;2023-04-06T11:24:25;101827.22;;;13.29;54.52
23016;BME280;11674;52.428;13.584;2023-04-06T11:29:33;101826.03;;;13.55;53.85
23016;BME280;11674;52.428;13.584;2023-04-06T11:34:40;101813.56;;;13.96;53.42
23016;BME280;11674;52.428;13.584;2023-04-06T11:39:49;101814.53;;;14.63;52.90
23016;BME280;11674;52.428;13.584;2023-04-06T11:44:58;101808.75;;;14.55;52.98
23016;BME280;11674;52.428;13.584;2023-04-06T11:50:13;101813.00;;;14.81;52.35
23016;BME280;11674;52.428;13.584;2023-04-06T11:55:19;101811.13;;;14.71;52.84
23016;BME280;11674;52.428;13.584;2023-04-06T12:00:26;101811.00;;;14.53;52.76
23016;BME280;11674;52.428;13.584;2023-04-06T12:05:33;101804.03;;;14.50;52.53
23016;BME280;11674;52.428;13.584;2023-04-06T12:10:40;101802.69;;;14.43;52.48
23016;BME280;11674;52.428;13.584;2023-04-06T12:15:47;101796.38;;;14.32;52.27
23016;BME280;11674;52.428;13.584;2023-04-06T12:20:54;101799.72;;;14.29;52.49
23016;BME280;11674;52.428;13.584;2023-04-06T12:26:02;101784.81;;;14.44;51.81
23016;BME280;11674;52.428;13.584;2023-04-06T12:31:17;101776.22;;;14.35;50.82
23016;BME280;11674;52.428;13.584;2023-04-06T12:36:24;101781.91;;;14.20;51.41
23016;BME280;11674;52.428;13.584;2023-04-06T12:41:31;101770.19;;;14.18;51.36
23016;BME280;11674;52.428;13.584;2023-04-06T12:46:38;101784.47;;;14.12;51.14
23016;BME280;11674;52.428;13.584;2023-04-06T12:51:45;101781.72;;;14.02;51.26
23016;BME280;11674;52.428;13.584;2023-04-06T12:56:52;101767.69;;;14.17;51.03
23016;BME280;11674;52.428;13.584;2023-04-06T13:01:59;101763.97;;;14.65;50.65
23016;BME280;11674;52.428;13.584;2023-04-06T13:07:06;101758.31;;;14.41;50.53
23016;BME280;11674;52.428;13.584;2023-04-06T13:12:13;101755.53;;;14.41;50.43
23016;BME280;11674;52.428;13.584;2023-04-06T13:17:20;101754.47;;;14.94;49.75
23016;BME280;11674;52.428;13.584;2023-04-06T13:22:27;101750.56;;;14.67;49.56
23016;BME280;11674;52.428;13.584;2023-04-06T13:27:34;101745.41;;;14.50;49.33
23016;BME280;11674;52.428;13.584;2023-04-06T13:32:41;101731.94;;;15.38;48.53
23016;BME280;11674;52.428;13.584;2023-04-06T13:37:48;101732.84;;;15.33;46.46
23016;BME280;11674;52.428;13.584;2023-04-06T13:42:55;101735.50;;;15.62;46.51
23016;BME280;11674;52.428;13.584;2023-04-06T13:48:03;101723.19;;;16.18;46.46
23016;BME280;11674;52.428;13.584;2023-04-06T13:53:09;101716.38;;;16.75;46.16
23016;BME280;11674;52.428;13.584;2023-04-06T13:58:16;101713.31;;;17.30;46.03
23016;BME280;11674;52.428;13.584;2023-04-06T14:03:23;101722.63;;;16.85;46.47
23016;BME280;11674;52.428;13.584;2023-04-06T14:08:30;101716.75;;;16.36;46.93
23016;BME280;11674;52.428;13.584;2023-04-06T14:13:38;101722.69;;;15.79;47.13
23016;BME280;11674;52.428;13.584;2023-04-06T14:18:44;101718.88;;;15.70;46.68
23016;BME280;11674;52.428;13.584;2023-04-06T14:23:51;101714.81;;;15.63;45.77
23016;BME280;11674;52.428;13.584;2023-04-06T14:28:59;101716.00;;;15.57;46.08
23016;BME280;11674;52.428;13.584;2023-04-06T14:34:05;101706.50;;;15.95;45.76
23016;BME280;11674;52.428;13.584;2023-04-06T14:39:12;101722.03;;;15.87;45.69
23016;BME280;11674;52.428;13.584;2023-04-06T14:44:20;101708.25;;;15.91;44.91
23016;BME280;11674;52.428;13.584;2023-04-06T14:49:27;101708.50;;;15.52;44.95
23016;BME280;11674;52.428;13.584;2023-04-06T14:54:34;101715.47;;;15.31;45.01
23016;BME280;11674;52.428;13.584;2023-04-06T14:59:41;101710.47;;;15.33;45.39
23016;BME280;11674;52.428;13.584;2023-04-06T15:04:48;101700.03;;;15.39;44.69
23016;BME280;11674;52.428;13.584;2023-04-06T15:09:55;101698.78;;;15.68;44.98
23016;BME280;11674;52.428;13.584;2023-04-06T15:15:03;101714.22;;;15.84;44.94
23016;BME280;11674;52.428;13.584;2023-04-06T15:20:10;101702.94;;;15.71;44.71
23016;BME280;11674;52.428;13.584;2023-04-06T15:25:17;101697.06;;;15.72;44.97
23016;BME280;11674;52.428;13.584;2023-04-06T15:30:23;101696.69;;;15.79;44.72
23016;BME280;11674;52.428;13.584;2023-04-06T15:35:31;101694.41;;;15.81;44.88
23016;BME280;11674;52.428;13.584;2023-04-06T15:40:45;101690.31;;;15.92;44.26
23016;BME280;11674;52.428;13.584;2023-04-06T15:45:52;101690.03;;;15.75;45.13
23016;BME280;11674;52.428;13.584;2023-04-06T15:50:59;101695.38;;;15.53;44.90
23016;BME280;11674;52.428;13.584;2023-04-06T15:56:06;101688.50;;;15.64;44.86
23016;BME280;11674;52.428;13.584;2023-04-06T16:01:15;101690.53;;;15.58;45.03
23016;BME280;11674;52.428;13.584;2023-04-06T16:06:21;101698.41;;;15.56;44.66
23016;BME280;11674;52.428;13.584;2023-04-06T16:11:28;101705.50;;;15.49;44.68
23016;BME280;11674;52.428;13.584;2023-04-06T16:16:35;101705.94;;;15.32;44.73
23016;BME280;11674;52.428;13.584;2023-04-06T16:21:42;101703.88;;;15.19;44.79
23016;BME280;11674;52.428;13.584;2023-04-06T16:26:49;101702.56;;;15.12;44.98
23016;BME280;11674;52.428;13.584;2023-04-06T16:31:57;101697.72;;;14.99;44.77
23016;BME280;11674;52.428;13.584;2023-04-06T16:37:03;101704.53;;;14.88;45.17
23016;BME280;11674;52.428;13.584;2023-04-06T16:42:10;101710.91;;;14.65;45.03
23016;BME280;11674;52.428;13.584;2023-04-06T16:47:17;101698.31;;;14.39;44.88
23016;BME280;11674;52.428;13.584;2023-04-06T16:52:24;101705.34;;;14.31;45.15
23016;BME280;11674;52.428;13.584;2023-04-06T16:57:31;101707.91;;;14.28;44.89
23016;BME280;11674;52.428;13.584;2023-04-06T17:02:38;101706.56;;;14.15;44.96
23016;BME280;11674;52.428;13.584;2023-04-06T17:07:45;101697.03;;;13.88;45.02
23016;BME280;11674;52.428;13.584;2023-04-06T17:12:52;101701.44;;;13.50;45.02
23016;BME280;11674;52.428;13.584;2023-04-06T17:18:00;101704.66;;;13.19;44.94
23016;BME280;11674;52.428;13.584;2023-04-06T17:23:06;101699.72;;;12.96;45.27
23016;BME280;11674;52.428;13.584;2023-04-06T17:28:13;101703.34;;;12.81;45.25
23016;BME280;11674;52.428;13.584;2023-04-06T17:33:20;101704.78;;;12.59;45.15
23016;BME280;11674;52.428;13.584;2023-04-06T17:38:27;101713.44;;;12.32;45.32
23016;BME280;11674;52.428;13.584;2023-04-06T17:43:34;101721.75;;;12.07;45.26
23016;BME280;11674;52.428;13.584;2023-04-06T17:48:41;101732.56;;;11.89;45.66
23016;BME280;11674;52.428;13.584;2023-04-06T17:53:48;101740.31;;;11.67;45.53
23016;BME280;11674;52.428;13.584;2023-04-06T17:58:55;101735.50;;;11.47;45.80
23016;BME280;11674;52.428;13.584;2023-04-06T18:04:02;101739.91;;;11.33;45.97
23016;BME280;11674;52.428;13.584;2023-04-06T18:09:09;101745.91;;;11.15;45.95
23016;BME280;11674;52.428;13.584;2023-04-06T18:14:16;101756.13;;;11.00;46.21
23016;BME280;11674;52.428;13.584;2023-04-06T18:19:23;101752.38;;;10.84;45.91
23016;BME280;11674;52.428;13.584;2023-04-06T18:24:30;101763.69;;;10.68;46.20
23016;BME280;11674;52.428;13.584;2023-04-06T18:29:38;101760.78;;;10.53;46.12
23016;BME280;11674;52.428;13.584;2023-04-06T18:34:45;101769.28;;;10.41;46.26
23016;BME280;11674;52.428;13.584;2023-04-06T18:39:52;101762.22;;;10.29;46.38
23016;BME280;11674;52.428;13.584;2023-04-06T18:44:59;101773.22;;;10.14;46.39
23016;BME280;11674;52.428;13.584;2023-04-06T18:50:07;101772.47;;;10.02;46.54
23016;BME280;11674;52.428;13.584;2023-04-06T18:55:14;101771.81;;;9.90;46.65
23016;BME280;11674;52.428;13.584;2023-04-06T19:00:20;101773.34;;;9.76;46.89
23016;BME280;11674;52.428;13.584;2023-04-06T19:05:27;101776.50;;;9.63;46.91
23016;BME280;11674;52.428;13.584;2023-04-06T19:10:35;101781.59;;;9.49;46.96
23016;BME280;11674;52.428;13.584;2023-04-06T19:15:41;101788.66;;;9.40;47.20
23016;BME280;11674;52.428;13.584;2023-04-06T19:20:48;101780.81;;;9.32;47.23
23016;BME280;11674;52.428;13.584;2023-04-06T19:25:55;101776.00;;;9.23;47.36
23016;BME280;11674;52.428;13.584;2023-04-06T19:31:03;101775.88;;;9.13;47.43
23016;BME280;11674;52.428;13.584;2023-04-06T19:36:11;101775.47;;;9.04;47.42
23016;BME280;11674;52.428;13.584;2023-04-06T19:41:19;101781.09;;;8.93;47.51
23016;BME280;11674;52.428;13.584;2023-04-06T19:46:26;101779.59;;;8.85;47.66
23016;BME280;11674;52.428;13.584;2023-04-06T19:51:33;101771.69;;;8.72;47.72
23016;BME280;11674;52.428;13.584;2023-04-06T19:56:39;101771.28;;;8.64;47.99
23016;BME280;11674;52.428;13.584;2023-04-06T20:01:46;101770.59;;;8.57;48.03
23016;BME280;11674;52.428;13.584;2023-04-06T20:06:53;101776.56;;;8.49;47.95
23016;BME280;11674;52.428;13.584;2023-04-06T20:12:01;101779.72;;;8.41;48.15
23016;BME280;11674;52.428;13.584;2023-04-06T20:17:08;101788.19;;;8.34;48.33
23016;BME280;11674;52.428;13.584;2023-04-06T20:22:15;101786.69;;;8.27;48.42
23016;BME280;11674;52.428;13.584;2023-04-06T20:27:22;101786.00;;;8.20;48.46
23016;BME280;11674;52.428;13.584;2023-04-06T20:32:29;101784.81;;;8.16;48.50
23016;BME280;11674;52.428;13.584;2023-04-06T20:37:36;101786.28;;;8.07;48.53
23016;BME280;11674;52.428;13.584;2023-04-06T20:42:43;101775.28;;;7.95;48.76
23016;BME280;11674;52.428;13.584;2023-04-06T20:47:56;101777.63;;;7.87;48.78
23016;BME280;11674;52.428;13.584;2023-04-06T20:53:04;101779.94;;;7.78;48.90
23016;BME280;11674;52.428;13.584;2023-04-06T20:58:11;101782.28;;;7.70;48.95
23016;BME280;11674;52.428;13.584;2023-04-06T21:03:18;101779.31;;;7.60;49.03
23016;BME280;11674;52.428;13.584;2023-04-06T21:08:25;101774.66;;;7.49;49.12
23016;BME280;11674;52.428;13.584;2023-04-06T21:13:33;101785.25;;;7.40;49.30
23016;BME280;11674;52.428;13.584;2023-04-06T21:18:40;101787.34;;;7.33;49.39
23016;BME280;11674;52.428;13.584;2023-04-06T21:23:50;101776.91;;;7.24;49.46
23016;BME280;11674;52.428;13.584;2023-04-06T21:28:57;101778.97;;;7.17;49.62
23016;BME280;11674;52.428;13.584;2023-04-06T21:34:07;101771.66;;;7.11;49.70
23016;BME280;11674;52.428;13.584;2023-04-06T21:39:14;101776.22;;;7.05;49.81
23016;BME280;11674;52.428;13.584;2023-04-06T21:44:21;101776.09;;;7.00;49.85
23016;BME280;11674;52.428;13.584;2023-04-06T21:49:29;101769.16;;;6.98;49.97
23016;BME280;11674;52.428;13.584;2023-04-06T21:54:36;101778.38;;;6.92;50.08
23016;BME280;11674;52.428;13.584;2023-04-06T21:59:43;101772.75;;;6.87;50.12
23016;BME280;11674;52.428;13.584;2023-04-06T22:04:50;101772.16;;;6.85;50.28
23016;BME280;11674;52.428;13.584;2023-04-06T22:09:57;101761.75;;;6.75;50.36
23016;BME280;11674;52.428;13.584;2023-04-06T22:15:04;101763.19;;;6.66;50.46
23016;BME280;11674;52.428;13.584;2023-04-06T22:20:11;101755.53;;;6.57;50.65
23016;BME280;11674;52.428;13.584;2023-04-06T22:25:19;101756.84;;;6.43;50.60
23016;BME280;11674;52.428;13.584;2023-04-06T22:30:26;101756.47;;;6.28;50.82
23016;BME280;11674;52.428;13.584;2023-04-06T22:35:33;101756.19;;;6.18;50.96
23016;BME280;11674;52.428;13.584;2023-04-06T22:40:40;101756.78;;;6.08;51.02
23016;BME280;11674;52.428;13.584;2023-04-06T22:45:47;101749.34;;;5.97;51.09
23016;BME280;11674;52.428;13.584;2023-04-06T22:50:54;101748.00;;;5.88;51.16
23016;BME280;11674;52.428;13.584;2023-04-06T22:56:01;101746.81;;;5.84;51.34
23016;BME280;11674;52.428;13.584;2023-04-06T23:01:08;101736.69;;;5.78;51.38
23016;BME280;11674;52.428;13.584;2023-04-06T23:06:15;101745.66;;;5.74;51.58
23016;BME280;11674;52.428;13.584;2023-04-06T23:11:22;101748.91;;;5.71;51.54
23016;BME280;11674;52.428;13.584;2023-04-06T23:16:29;101745.75;;;5.67;51.85
23016;BME280;11674;52.428;13.584;2023-04-06T23:21:36;101735.47;;;5.63;51.83
23016;BME280;11674;52.428;13.584;2023-04-06T23:26:43;101746.31;;;5.58;52.10
23016;BME280;11674;52.428;13.584;2023-04-06T23:31:50;101745.59;;;5.51;52.25
23016;BME280;11674;52.428;13.584;2023-04-06T23:36:57;101743.00;;;5.38;52.40
23016;BME280;11674;52.428;13.584;2023-04-06T23:42:04;101742.97;;;5.26;52.58
23016;BME280;11674;52.428;13.584;2023-04-06T23:47:11;101737.78;;;5.18;52.79
23016;BME280;11674;52.428;13.584;2023-04-06T23:52:18;101744.19;;;5.12;53.04
23016;BME280;11674;52.428;13.584;2023-04-06T23:57:25;101741.38;;;5.01;53.15
